Time,TemperatureF,DewpointF,PressureIn,WindDirection,WindDirectionDegrees,WindSpeedMPH,WindSpeedGustMPH,Humidity,HourlyPrecipIn,Conditions,Clouds,dailyrainin,SoftwareType,DateUTC
2013-01-23 00:06:00,50.5,38.4,30.15,SSW,202,2.2,-999.0,63,-99.99,,,0.00,Acu-Link.com,2013-01-23 05:06:00,
2013-01-23 00:21:00,50.0,37.9,30.14,WSW,247,2.2,-999.0,63,-99.99,,,0.00,Acu-Link.com,2013-01-23 05:21:00,
2013-01-23 00:37:00,50.0,38.3,30.14,South,180,1.7,-999.0,64,-99.99,,,0.00,Acu-Link.com,2013-01-23 05:37:00,
2013-01-23 00:52:00,49.6,37.9,30.14,SSW,202,0.0,-999.0,64,-99.99,,,0.00,Acu-Link.com,2013-01-23 05:52:00,
2013-01-23 01:07:00,49.8,38.1,30.14,NNW,337,2.2,-999.0,64,-99.99,,,0.00,Acu-Link.com,2013-01-23 06:07:00,
2013-01-23 01:22:00,49.8,38.5,30.15,SW,225,0.0,-999.0,65,-99.99,,,0.00,Acu-Link.com,2013-01-23 06:22:00,
2013-01-23 01:38:00,50.2,41.2,30.15,NW,315,3.2,-999.0,71,-99.99,,,0.00,Acu-Link.com,2013-01-23 06:38:00,
2013-01-23 01:53:00,51.1,41.7,30.15,NNW,337,4.2,-999.0,70,-99.99,,,0.00,Acu-Link.com,2013-01-23 06:53:00,
2013-01-23 02:08:00,52.0,41.8,30.15,WNW,292,3.7,-999.0,68,-99.99,,,0.00,Acu-Link.com,2013-01-23 07:08:00,
2013-01-23 02:24:00,51.8,41.2,30.14,NNE,22,2.7,-999.0,67,-99.99,,,0.00,Acu-Link.com,2013-01-23 07:24:00,
2013-01-23 02:39:00,51.4,40.0,30.15,NW,315,4.2,-999.0,65,-99.99,,,0.00,Acu-Link.com,2013-01-23 07:39:00,
2013-01-23 02:54:00,51.3,40.3,30.15,NNW,337,3.2,-999.0,66,-99.99,,,0.00,Acu-Link.com,2013-01-23 07:54:00,
2013-01-23 03:10:00,51.3,39.5,30.15,NW,315,3.7,-999.0,64,-99.99,,,0.00,Acu-Link.com,2013-01-23 08:10:00,
2013-01-23 03:25:00,50.9,39.2,30.15,NNW,337,4.2,-999.0,64,-99.99,,,0.00,Acu-Link.com,2013-01-23 08:25:00,
2013-01-23 03:40:00,51.1,40.1,30.15,NNW,337,5.8,-999.0,66,-99.99,,,0.00,Acu-Link.com,2013-01-23 08:40:00,
2013-01-23 03:55:00,51.1,40.9,30.16,North,0,7.8,-999.0,68,-99.99,,,0.00,Acu-Link.com,2013-01-23 08:55:00,
2013-01-23 04:15:00,51.3,41.1,30.15,WNW,292,6.8,-999.0,68,-99.99,,,0.00,Acu-Link.com,2013-01-23 09:15:00,
2013-01-23 04:30:00,50.7,40.5,30.16,NW,315,6.3,-999.0,68,-99.99,,,0.00,Acu-Link.com,2013-01-23 09:30:00,
2013-01-23 04:45:00,50.0,39.5,30.16,NNW,337,8.3,-999.0,67,-99.99,,,0.00,Acu-Link.com,2013-01-23 09:45:00,
2013-01-23 05:00:00,49.3,39.6,30.17,North,0,7.3,-999.0,69,-99.99,,,0.00,Acu-Link.com,2013-01-23 10:00:00,
2013-01-23 05:15:00,48.7,39.4,30.17,NW,315,5.3,-999.0,70,-99.99,,,0.00,Acu-Link.com,2013-01-23 10:15:00,
2013-01-23 05:30:00,48.0,39.1,30.17,North,0,5.3,-999.0,71,-99.99,,,0.00,Acu-Link.com,2013-01-23 10:30:00,
2013-01-23 05:46:00,47.7,39.1,30.18,North,0,7.3,-999.0,72,-99.99,,,0.00,Acu-Link.com,2013-01-23 10:46:00,
2013-01-23 06:01:00,47.8,38.5,30.18,NNW,337,6.3,-999.0,70,-99.99,,,0.00,Acu-Link.com,2013-01-23 11:01:00,
2013-01-23 06:32:00,48.2,37.0,30.20,NNE,22,8.3,-999.0,65,-99.99,,,0.00,Acu-Link.com,2013-01-23 11:32:00,
2013-01-23 06:47:00,48.0,36.4,30.20,North,0,5.8,-999.0,64,-99.99,,,0.00,Acu-Link.com,2013-01-23 11:47:00,
2013-01-23 07:02:00,47.8,36.6,30.21,North,0,5.3,-999.0,65,-99.99,,,0.00,Acu-Link.com,2013-01-23 12:02:00,
2013-01-23 07:17:00,47.5,36.3,30.21,NNW,337,4.7,-999.0,65,-99.99,,,0.00,Acu-Link.com,2013-01-23 12:17:00,
2013-01-23 07:32:00,47.1,35.9,30.22,North,0,4.7,-999.0,65,-99.99,,,0.00,Acu-Link.com,2013-01-23 12:32:00,
2013-01-23 07:48:00,47.5,35.5,30.21,NW,315,4.7,-999.0,63,-99.99,,,0.00,Acu-Link.com,2013-01-23 12:48:00,
2013-01-23 08:03:00,50.2,36.9,30.22,NNE,22,4.7,-999.0,60,-99.99,,,0.00,Acu-Link.com,2013-01-23 13:03:00,
2013-01-23 08:18:00,52.5,38.2,30.22,North,0,5.8,-999.0,58,-99.99,,,0.00,Acu-Link.com,2013-01-23 13:18:00,
2013-01-23 08:34:00,54.0,37.7,30.23,NW,315,7.8,-999.0,54,-99.99,,,0.00,Acu-Link.com,2013-01-23 13:34:00,
2013-01-23 08:49:00,54.1,37.4,30.23,North,0,9.9,-999.0,53,-99.99,,,0.00,Acu-Link.com,2013-01-23 13:49:00,
2013-01-23 09:04:00,54.5,36.2,30.23,North,0,7.3,-999.0,50,-99.99,,,0.00,Acu-Link.com,2013-01-23 14:04:00,
2013-01-23 09:19:00,56.1,38.2,30.23,NNW,337,6.8,-999.0,51,-99.99,,,0.00,Acu-Link.com,2013-01-23 14:19:00,
2013-01-23 09:35:00,56.8,37.3,30.24,NNE,22,7.8,-999.0,48,-99.99,,,0.00,Acu-Link.com,2013-01-23 14:35:00,
2013-01-23 09:50:00,57.7,38.1,30.24,NNE,22,4.7,-999.0,48,-99.99,,,0.00,Acu-Link.com,2013-01-23 14:50:00,
2013-01-23 10:05:00,58.5,36.7,30.24,North,0,8.3,-999.0,44,-99.99,,,0.00,Acu-Link.com,2013-01-23 15:05:00,
2013-01-23 10:20:00,59.4,36.9,30.25,NW,315,10.9,-999.0,43,-99.99,,,0.00,Acu-Link.com,2013-01-23 15:20:00,
2013-01-23 10:36:00,60.3,37.7,30.24,NNE,22,10.4,-999.0,43,-99.99,,,0.00,Acu-Link.com,2013-01-23 15:36:00,
2013-01-23 10:51:00,61.2,36.7,30.24,NNW,337,7.3,-999.0,40,-99.99,,,0.00,Acu-Link.com,2013-01-23 15:51:00,
2013-01-23 11:06:00,62.2,38.8,30.23,NNE,22,5.3,-999.0,42,-99.99,,,0.00,Acu-Link.com,2013-01-23 16:06:00,
2013-01-23 11:22:00,63.3,39.2,30.24,North,0,6.3,-999.0,41,-99.99,,,0.00,Acu-Link.com,2013-01-23 16:22:00,
2013-01-23 11:37:00,63.9,39.7,30.22,NNW,337,3.7,-999.0,41,-99.99,,,0.00,Acu-Link.com,2013-01-23 16:37:00,
2013-01-23 11:52:00,64.2,39.4,30.22,WNW,292,6.3,-999.0,40,-99.99,,,0.00,Acu-Link.com,2013-01-23 16:52:00,
2013-01-23 12:08:00,65.8,41.4,30.20,NNE,22,6.8,-999.0,41,-99.99,,,0.00,Acu-Link.com,2013-01-23 17:08:00,
2013-01-23 12:23:00,65.3,40.4,30.20,NNE,22,3.7,-999.0,40,-99.99,,,0.00,Acu-Link.com,2013-01-23 17:23:00,
2013-01-23 12:39:00,65.8,40.2,30.19,North,0,5.8,-999.0,39,-99.99,,,0.00,Acu-Link.com,2013-01-23 17:39:00,
2013-01-23 12:54:00,66.6,38.1,30.18,NNE,22,2.7,-999.0,35,-99.99,,,0.00,Acu-Link.com,2013-01-23 17:54:00,
2013-01-23 13:09:00,67.1,39.2,30.17,NNW,337,7.8,-999.0,36,-99.99,,,0.00,Acu-Link.com,2013-01-23 18:09:00,
2013-01-23 13:25:00,67.1,37.8,30.16,NE,45,5.8,-999.0,34,-99.99,,,0.00,Acu-Link.com,2013-01-23 18:25:00,
2013-01-23 13:40:00,67.3,38.0,30.15,West,270,1.7,-999.0,34,-99.99,,,0.00,Acu-Link.com,2013-01-23 18:40:00,
2013-01-23 13:55:00,68.4,40.4,30.14,North,0,7.3,-999.0,36,-99.99,,,0.00,Acu-Link.com,2013-01-23 18:55:00,
2013-01-23 14:11:00,67.8,39.1,30.14,NNW,337,7.8,-999.0,35,-99.99,,,0.00,Acu-Link.com,2013-01-23 19:11:00,
2013-01-23 14:26:00,67.6,39.0,30.14,WNW,292,9.4,-999.0,35,-99.99,,,0.00,Acu-Link.com,2013-01-23 19:26:00,
2013-01-23 14:41:00,68.0,37.8,30.15,NNW,337,6.3,-999.0,33,-99.99,,,0.00,Acu-Link.com,2013-01-23 19:41:00,
2013-01-23 14:57:00,68.5,37.5,30.15,NNW,337,6.8,-999.0,32,-99.99,,,0.00,Acu-Link.com,2013-01-23 19:57:00,
2013-01-23 15:12:00,67.8,39.1,30.14,NNW,337,5.8,-999.0,35,-99.99,,,0.00,Acu-Link.com,2013-01-23 20:12:00,
2013-01-23 15:27:00,67.8,38.4,30.15,NW,315,4.2,-999.0,34,-99.99,,,0.00,Acu-Link.com,2013-01-23 20:27:00,
2013-01-23 15:42:00,67.5,38.9,30.14,North,0,7.8,-999.0,35,-99.99,,,0.00,Acu-Link.com,2013-01-23 20:42:00,
2013-01-23 15:58:00,67.6,39.0,30.14,NE,45,5.8,-999.0,35,-99.99,,,0.00,Acu-Link.com,2013-01-23 20:58:00,
2013-01-23 16:13:00,67.1,39.2,30.14,NNW,337,5.3,-999.0,36,-99.99,,,0.00,Acu-Link.com,2013-01-23 21:13:00,
2013-01-23 16:28:00,66.4,38.6,30.14,North,0,3.2,-999.0,36,-99.99,,,0.00,Acu-Link.com,2013-01-23 21:28:00,
2013-01-23 16:44:00,66.4,40.0,30.15,NNW,337,4.7,-999.0,38,-99.99,,,0.00,Acu-Link.com,2013-01-23 21:44:00,
2013-01-23 16:59:00,65.8,40.2,30.15,NNW,337,5.8,-999.0,39,-99.99,,,0.00,Acu-Link.com,2013-01-23 21:59:00,
2013-01-23 17:14:00,65.3,40.4,30.15,North,0,5.3,-999.0,40,-99.99,,,0.00,Acu-Link.com,2013-01-23 22:14:00,
2013-01-23 17:30:00,64.9,40.0,30.16,NNW,337,3.7,-999.0,40,-99.99,,,0.00,Acu-Link.com,2013-01-23 22:30:00,
2013-01-23 17:45:00,64.2,40.0,30.15,North,0,4.2,-999.0,41,-99.99,,,0.00,Acu-Link.com,2013-01-23 22:45:00,
2013-01-23 18:00:00,63.3,41.0,30.15,NNW,337,2.2,-999.0,44,-99.99,,,0.00,Acu-Link.com,2013-01-23 23:00:00,
2013-01-23 18:15:00,61.5,41.1,30.16,WSW,247,1.7,-999.0,47,-99.99,,,0.00,Acu-Link.com,2013-01-23 23:15:00,
2013-01-23 18:31:00,60.4,42.7,30.16,NNW,337,2.2,-999.0,52,-99.99,,,0.00,Acu-Link.com,2013-01-23 23:31:00,
2013-01-23 18:46:00,59.7,41.5,30.17,West,270,1.7,-999.0,51,-99.99,,,0.00,Acu-Link.com,2013-01-23 23:46:00,
2013-01-23 19:01:00,59.9,42.2,30.17,NNW,337,3.7,-999.0,52,-99.99,,,0.00,Acu-Link.com,2013-01-24 00:01:00,
2013-01-23 19:16:00,59.7,42.0,30.17,North,0,4.2,-999.0,52,-99.99,,,0.00,Acu-Link.com,2013-01-24 00:16:00,
2013-01-23 19:32:00,59.2,41.6,30.17,NNE,22,2.7,-999.0,52,-99.99,,,0.00,Acu-Link.com,2013-01-24 00:32:00,
2013-01-23 19:47:00,57.6,40.6,30.18,WNW,292,2.7,-999.0,53,-99.99,,,0.00,Acu-Link.com,2013-01-24 00:47:00,
2013-01-23 20:02:00,57.0,40.0,30.18,WNW,292,2.2,-999.0,53,-99.99,,,0.00,Acu-Link.com,2013-01-24 01:02:00,
2013-01-23 20:18:00,57.2,41.2,30.19,NNE,22,4.2,-999.0,55,-99.99,,,0.00,Acu-Link.com,2013-01-24 01:18:00,
2013-01-23 20:33:00,57.7,40.7,30.18,NE,45,3.7,-999.0,53,-99.99,,,0.00,Acu-Link.com,2013-01-24 01:33:00,
2013-01-23 20:48:00,57.7,43.0,30.18,East,90,3.7,-999.0,58,-99.99,,,0.00,Acu-Link.com,2013-01-24 01:48:00,
2013-01-23 21:03:00,56.3,42.6,30.19,SE,135,2.7,-999.0,60,-99.99,,,0.00,Acu-Link.com,2013-01-24 02:03:00,
2013-01-23 21:19:00,55.2,42.4,30.19,ESE,112,3.2,-999.0,62,-99.99,,,0.00,Acu-Link.com,2013-01-24 02:19:00,
2013-01-23 21:34:00,54.7,43.2,30.19,ESE,112,4.2,-999.0,65,-99.99,,,0.00,Acu-Link.com,2013-01-24 02:34:00,
2013-01-23 21:50:00,55.0,44.2,30.19,ESE,112,3.2,-999.0,67,-99.99,,,0.00,Acu-Link.com,2013-01-24 02:50:00,
2013-01-23 22:05:00,54.0,43.7,30.19,ENE,67,1.7,-999.0,68,-99.99,,,0.00,Acu-Link.com,2013-01-24 03:05:00,
2013-01-23 22:20:00,52.7,42.8,30.19,WSW,247,0.0,-999.0,69,-99.99,,,0.00,Acu-Link.com,2013-01-24 03:20:00,
2013-01-23 22:36:00,51.8,42.7,30.19,SW,225,1.7,-999.0,71,-99.99,,,0.00,Acu-Link.com,2013-01-24 03:36:00,
2013-01-23 22:51:00,51.1,42.4,30.19,SW,225,1.7,-999.0,72,-99.99,,,0.00,Acu-Link.com,2013-01-24 03:51:00,
2013-01-23 23:06:00,50.4,42.4,30.19,SW,225,0.0,-999.0,74,-99.99,,,0.00,Acu-Link.com,2013-01-24 04:06:00,
2013-01-23 23:22:00,50.4,42.8,30.18,South,180,0.0,-999.0,75,-99.99,,,0.00,Acu-Link.com,2013-01-24 04:22:00,
2013-01-23 23:37:00,50.7,44.1,30.18,SSE,157,3.2,-999.0,78,-99.99,,,0.00,Acu-Link.com,2013-01-24 04:37:00,
2013-01-23 23:52:00,50.4,43.8,30.18,SSW,202,2.7,-999.0,78,-99.99,,,0.00,Acu-Link.com,2013-01-24 04:52:00,